KFHRKNUW

Guest
Details From KFHR - FRIDAY HARBOR
To KNUW - WHIDBEY ISLAND NAS
Flight Number -
Tags generated
Created
Modified
Stats Distance 18 nm / 33 km
Max Altitude 0 ft / 0 m
Waypoints 2
Social Downloads 0
Likes 0
Share VATSIM

Download

Looking for another format? Having issues loading an existing format? Contact us
Advertisement - Login to hide

Notes

Basic altitude profile: - Ascent Rate: 2500ft/min - Ascent Speed: 250kts - Cruise Altitude: 35000ft - Cruise Speed: 420kts - Descent Rate: 1500ft/min - Descent Speed: 250kts Options: - Use NATs: no - Use PACOTS: no - Use low airways: no - Use high airways: yes

Route

KFHR KNUW

ID Type Via Altitude Latitude Longitude Leg Dist Tot Dist Heading (true) Name
O KFHR APT - 0 ft / 0 m 48.52197˚ -123.02437˚ - 0 nm - FRIDAY HARBOR
O KNUW APT - 0 ft / 0 m 48.35180˚ -122.65591˚ 17 nm 17 nm 125° / 125° WHIDBEY ISLAND NAS

Altitude Profile

Advertisement - Login to hide

KFHR

Details ICAO KFHR (FRD)
Name FRIDAY HARBOR
Region United States
Timezone America/Los_Angeles (UTC-8.0)
Stats Elevation 113 ft / 34 m (AMSL)
Location 48.521966° -123.024368°
Runways 1
Magnetic Variation 16.073° E

METAR

KFHR 120653Z AUTO 00000KT 10SM SCT110 01/01 A3041 RMK AO2 SLP300 T00110006 $

Decode

TAF

Not found

Departure Runways

ID Width Length Bearing (true) Bearing (mag) Surface Threshold Offset Overrun Length
16 75 ft / 23 m 3,402 ft / 1,037 m 177.06° 160.99° Asphalt 0 ft / 0 m 0 ft / 0 m
34 75 ft / 23 m 3,402 ft / 1,037 m 357.06° 340.99° Asphalt 0 ft / 0 m 0 ft / 0 m

KNUW

Details ICAO KNUW (NUW)
Name WHIDBEY ISLAND NAS
Region United States
Timezone America/Los_Angeles (UTC-8.0)
Stats Elevation 47 ft / 14 m (AMSL)
Location 48.351803° -122.655907°
Runways 2
Magnetic Variation 15.967° E

METAR

KNUW 120656Z 00000KT 10SM FEW030 SCT220 03/M01 A3045 RMK AO2 SLP311 T00331006 $

Decode

TAF

TAF KNUW 1207/1307 VRB06KT 8000 BCFG SCT100 SCT250 520909 521809 522709 QNH3040INS FM120900 VRB06KT 8000 BCFG SCT005 SCT100 BKN250 520909 521809 522709 QNH3043INS TEMPO 1212/1218 26008KT 1600 BR SCT005 BKN100 BKN250 FM121800 26008KT 9999 FEW005 SCT100 BKN250 520909 521809 522709 QNH3037INS TEMPO 1300/1306 VRB06KT 3200 BR T01/1212Z T09/1222Z FS30102

Decode

Destination Runways

ID Width Length Bearing (true) Bearing (mag) Surface Threshold Offset Overrun Length
07 200 ft / 61 m 7,977 ft / 2,432 m 86.95° 70.98° Concrete 0 ft / 0 m 1,000 ft / 305 m
13 200 ft / 61 m 7,999 ft / 2,438 m 154.71° 138.74° Concrete 0 ft / 0 m 1,000 ft / 305 m
25 200 ft / 61 m 7,977 ft / 2,432 m 266.97° 251.00° Concrete 0 ft / 0 m 1,000 ft / 305 m
31 200 ft / 61 m 7,999 ft / 2,438 m 334.72° 318.75° Concrete 0 ft / 0 m 1,000 ft / 305 m

Approach Navaids

Runway Type Ident Frequency Range Bearing (true) Bearing (mag) Slope Elevation
13 Localiser INUW 110.10 MHz 18 nm / 33 km 154.72° 138.75° - 47 ft / 14 m (AMSL)
13 Glidescope INUW 110.10 MHz 10 nm / 19 km 154.71° 138.75° 3.00° 47 ft / 14 m (AMSL)

Popular Alternatives